Terminal Aerodrome Forecast
Issued by NWS Charleston, WV

Current Version | Previous Version | Graphics & Text | Print | Product List | Glossary On
Versions: 1 2 3 4 5 6 7 8 9 10 11 12 13 14 15 16 17 18 19 20 21 22 23 24 25 26
000
FTUS41 KRLX 300500
TAFPKB
TAF
KPKB 300530Z 3006/3106 00000KT 6SM BR SCT060
     FM300900 00000KT 3SM BR SCT045
      TEMPO 3010/3012 1SM BR
     FM301200 00000KT 3SM BR SCT045
     FM301300 25005KT P6SM SCT090
     FM310000 00000KT P6SM BKN060=

USA.gov is the U.S. government's official web portal to all federal, state and local government web resources and services.